Time;durP1;ratioP1;P1;durP2;ratioP2;P2;SDS_P1;SDS_P2;PMS_P1;PMS_P2;Temp;Humidity;BMP_temperature;BMP_pressure;BME280_temperature;BME280_humidity;BME280_pressure;Samples;Min_cycle;Max_cycle;Signal;HPM_P1;HPM_P2
2023/02/06 00:00:57;;;;;;;8.80;4.47;;;1.60;99.90;;;;;;4215091;28;20171;-70
2023/02/06 00:02:58;;;;;;;7.50;5.07;;;1.40;99.90;;;;;;4215596;28;20481;-68
2023/02/06 00:04:59;;;;;;;7.97;4.60;;;1.50;99.90;;;;;;4215474;28;20184;-68
2023/02/06 00:06:59;;;;;;;9.50;5.53;;;1.30;99.90;;;;;;4215359;28;20411;-69
2023/02/06 00:09:00;;;;;;;9.20;5.73;;;1.20;99.90;;;;;;4196772;28;20606;-68
2023/02/06 00:11:06;;;;;;;11.53;5.90;;;1.20;99.90;;;;;;4215383;28;20187;-68
2023/02/06 00:13:06;;;;;;;10.80;7.00;;;1.20;99.90;;;;;;4197425;28;20410;-68
2023/02/06 00:15:08;;;;;;;10.73;6.67;;;1.40;99.90;;;;;;4215286;28;20420;-69
2023/02/06 00:17:08;;;;;;;12.10;6.03;;;1.30;99.90;;;;;;4215201;28;20199;-68
2023/02/06 00:19:09;;;;;;;10.97;6.20;;;1.30;99.90;;;;;;4214775;28;20490;-69
2023/02/06 00:21:10;;;;;;;13.93;7.17;;;1.30;99.90;;;;;;4215307;28;20226;-69
2023/02/06 00:23:11;;;;;;;12.50;6.93;;;1.30;99.90;;;;;;4215405;28;20256;-69
2023/02/06 00:25:11;;;;;;;18.03;7.53;;;1.30;99.90;;;;;;4215440;28;20447;-69
2023/02/06 00:27:12;;;;;;;18.87;7.70;;;1.30;99.90;;;;;;4215584;28;20214;-68
2023/02/06 00:29:13;;;;;;;23.23;8.47;;;1.20;99.90;;;;;;4214328;28;20211;-68
2023/02/06 00:31:14;;;;;;;13.17;6.73;;;1.10;99.90;;;;;;4215065;28;20232;-68
2023/02/06 00:33:15;;;;;;;21.80;7.27;;;1.10;99.90;;;;;;4214710;28;20188;-68
2023/02/06 00:35:15;;;;;;;41.87;10.03;;;1.00;99.90;;;;;;4180026;28;20953;-68
2023/02/06 00:37:16;;;;;;;25.27;8.57;;;1.00;99.90;;;;;;4214892;28;20671;-69
2023/02/06 00:39:18;;;;;;;15.53;6.97;;;1.00;99.90;;;;;;4214177;28;20702;-68
2023/02/06 00:41:19;;;;;;;24.40;8.30;;;1.00;99.90;;;;;;4214867;28;20204;-69
2023/02/06 00:43:19;;;;;;;31.17;9.17;;;1.00;99.90;;;;;;4179997;28;20456;-69
2023/02/06 00:45:20;;;;;;;19.60;7.90;;;1.00;99.90;;;;;;4214867;28;20191;-68
2023/02/06 00:47:21;;;;;;;51.93;12.80;;;1.20;99.90;;;;;;4197120;28;20228;-69
2023/02/06 00:49:21;;;;;;;44.77;12.53;;;1.00;99.90;;;;;;4214221;28;20705;-68
2023/02/06 00:51:22;;;;;;;40.33;9.43;;;1.10;99.90;;;;;;4211208;28;20187;-69
2023/02/06 00:53:23;;;;;;;24.40;7.50;;;1.30;99.90;;;;;;4214605;28;20185;-68
2023/02/06 00:55:24;;;;;;;15.53;6.67;;;1.40;99.90;;;;;;4196845;28;20189;-68
2023/02/06 00:57:24;;;;;;;15.87;6.90;;;1.30;99.90;;;;;;4214608;28;20214;-69
2023/02/06 00:59:25;;;;;;;14.00;6.80;;;1.20;99.90;;;;;;4213872;28;20575;-68
2023/02/06 01:01:27;;;;;;;15.63;6.73;;;1.10;99.90;;;;;;4214662;28;20268;-68
2023/02/06 01:03:28;;;;;;;17.63;8.13;;;1.20;99.90;;;;;;4189639;28;20182;-68
2023/02/06 01:05:28;;;;;;;17.73;7.73;;;1.30;99.90;;;;;;4197860;28;20436;-68
2023/02/06 01:07:29;;;;;;;10.90;5.60;;;1.40;99.90;;;;;;4198048;28;20737;-68
2023/02/06 01:09:30;;;;;;;16.27;7.63;;;1.40;99.90;;;;;;4197002;28;20194;-68
2023/02/06 01:11:30;;;;;;;18.93;7.53;;;1.30;99.90;;;;;;4197300;28;20183;-68
2023/02/06 01:13:31;;;;;;;17.40;7.43;;;1.30;99.90;;;;;;4197911;28;20605;-68
2023/02/06 01:15:32;;;;;;;36.50;10.57;;;1.40;99.90;;;;;;4197473;28;20186;-68
2023/02/06 01:17:33;;;;;;;15.03;7.47;;;1.40;99.90;;;;;;4197446;28;20732;-68
2023/02/06 01:19:36;;;;;;;21.00;8.77;;;1.30;99.90;;;;;;4179466;28;20704;-68
2023/02/06 01:21:37;;;;;;;20.93;8.90;;;1.30;99.90;;;;;;4179742;28;20460;-69
2023/02/06 01:23:39;;;;;;;23.47;9.20;;;1.30;99.90;;;;;;4197728;28;20415;-68
2023/02/06 01:25:39;;;;;;;53.03;12.53;;;1.40;99.90;;;;;;4197427;28;20209;-68
2023/02/06 01:27:40;;;;;;;39.40;10.97;;;1.40;99.90;;;;;;4197424;28;20539;-68
2023/02/06 01:29:42;;;;;;;51.20;13.50;;;1.50;99.90;;;;;;4197318;28;20187;-68
2023/02/06 01:31:42;;;;;;;58.27;11.47;;;1.50;99.90;;;;;;4197267;28;20670;-68
2023/02/06 01:33:44;;;;;;;54.37;14.47;;;1.40;99.90;;;;;;4197159;28;20429;-70
2023/02/06 01:35:54;;;;;;;46.43;12.97;;;1.40;99.90;;;;;;4197328;28;20218;-68
2023/02/06 01:37:54;;;;;;;69.60;16.90;;;1.40;99.90;;;;;;4197682;28;20457;-68
2023/02/06 01:39:55;;;;;;;138.70;18.77;;;1.50;99.90;;;;;;4196442;28;20586;-68
2023/02/06 01:41:56;;;;;;;64.97;13.30;;;1.60;99.90;;;;;;4197113;28;20180;-69
2023/02/06 01:44:26;;;;;;;137.63;18.60;;;1.60;99.90;;;;;;4197894;28;20178;-69
2023/02/06 01:46:27;;;;;;;55.27;13.13;;;1.50;99.90;;;;;;4163268;28;20199;-68
2023/02/06 01:48:47;;;;;;;22.13;8.63;;;1.40;99.90;;;;;;4196560;28;20448;-68
2023/02/06 01:50:52;;;;;;;56.43;11.80;;;1.40;99.90;;;;;;4197083;28;20696;-68
2023/02/06 01:52:53;;;;;;;22.77;8.77;;;1.20;99.90;;;;;;4197126;28;20519;-69
2023/02/06 01:55:00;;;;;;;38.13;7.33;;;1.10;99.90;;;;;;4179164;28;20430;-68
2023/02/06 01:57:06;;;;;;;25.83;9.17;;;1.10;99.90;;;;;;4197157;28;20199;-68
2023/02/06 01:59:07;;;;;;;17.83;7.27;;;1.00;99.90;;;;;;4178451;28;20553;-68
2023/02/06 02:01:09;;;;;;;29.77;9.73;;;1.00;99.90;;;;;;4196943;28;20482;-68
2023/02/06 02:03:10;;;;;;;39.90;9.10;;;1.10;99.90;;;;;;4179078;28;20684;-68
2023/02/06 02:05:11;;;;;;;38.40;11.03;;;0.90;99.90;;;;;;4179125;28;20507;-68
2023/02/06 02:07:24;;;;;;;84.73;14.23;;;0.90;99.90;;;;;;4196950;28;20196;-67
2023/02/06 02:09:25;;;;;;;64.03;8.93;;;0.90;99.90;;;;;;4177971;28;20786;-68
2023/02/06 02:11:36;;;;;;;54.47;11.73;;;0.90;99.90;;;;;;4196761;28;20441;-69
2023/02/06 02:13:37;;;;;;;30.63;8.70;;;1.00;99.90;;;;;;4196744;28;20426;-68
2023/02/06 02:15:58;;;;;;;33.63;9.50;;;1.10;99.90;;;;;;4178914;28;20517;-69
2023/02/06 02:18:24;;;;;;;23.97;8.40;;;1.10;99.90;;;;;;4196816;28;20454;-67
2023/02/06 02:20:51;;;;;;;32.63;8.80;;;1.30;99.90;;;;;;4196252;28;20444;-68
2023/02/06 02:23:03;;;;;;;85.53;14.63;;;1.10;99.90;;;;;;4178829;28;20457;-67
2023/02/06 02:25:22;;;;;;;105.63;12.13;;;1.10;99.90;;;;;;4178652;28;20510;-69
2023/02/06 02:27:53;;;;;;;126.53;17.93;;;1.10;99.90;;;;;;4196959;28;20964;-67
2023/02/06 02:30:30;;;;;;;140.63;22.90;;;1.20;99.90;;;;;;4195964;28;20409;-67
2023/02/06 02:32:43;;;;;;;103.23;14.07;;;1.10;99.90;;;;;;4196533;28;20442;-68
2023/02/06 02:35:04;;;;;;;155.67;21.10;;;1.10;99.90;;;;;;4196578;28;20488;-68
2023/02/06 02:37:21;;;;;;;59.80;14.93;;;1.00;99.90;;;;;;4196001;28;20454;-68
2023/02/06 02:39:40;;;;;;;36.20;10.67;;;0.90;99.90;;;;;;4177637;28;20907;-67
2023/02/06 02:41:57;;;;;;;36.67;9.83;;;1.10;99.90;;;;;;4178734;28;20437;-69
2023/02/06 02:44:09;;;;;;;66.57;12.90;;;1.10;99.90;;;;;;4178789;28;20405;-68
2023/02/06 02:46:27;;;;;;;50.43;12.17;;;1.10;99.90;;;;;;4178609;28;20399;-68
2023/02/06 02:48:34;;;;;;;46.53;10.30;;;0.90;99.90;;;;;;4194174;28;20421;-69
2023/02/06 02:50:36;;;;;;;129.10;14.07;;;0.80;99.90;;;;;;4195359;28;20964;-69
2023/02/06 02:52:37;;;;;;;62.97;12.10;;;0.80;99.90;;;;;;4195497;28;20458;-69
2023/02/06 02:54:38;;;;;;;104.20;19.07;;;0.90;99.90;;;;;;4213178;28;20774;-69
2023/02/06 02:56:39;;;;;;;207.53;22.77;;;0.90;99.90;;;;;;4195148;28;20305;-69
2023/02/06 02:58:40;;;;;;;99.87;14.87;;;0.90;99.90;;;;;;4212149;28;20454;-68
2023/02/06 03:01:02;;;;;;;140.73;23.60;;;0.90;99.90;;;;;;4195073;28;20454;-71
2023/02/06 03:03:07;;;;;;;98.93;15.50;;;1.00;99.90;;;;;;4191998;28;20419;-69
2023/02/06 03:05:12;;;;;;;161.03;20.40;;;1.10;99.90;;;;;;4195638;28;20457;-69
2023/02/06 03:07:48;;;;;;;46.03;10.13;;;1.10;99.90;;;;;;4195027;28;20957;-68
2023/02/06 03:10:04;;;;;;;113.20;18.90;;;1.10;99.90;;;;;;4194513;28;20921;-69
2023/02/06 03:12:23;;;;;;;26.67;9.37;;;1.00;99.90;;;;;;4195159;28;20476;-69
2023/02/06 03:14:32;;;;;;;48.13;10.10;;;0.90;99.90;;;;;;4195068;28;20413;-69
2023/02/06 03:16:49;;;;;;;22.93;9.83;;;1.10;99.90;;;;;;4194883;28;20452;-67
2023/02/06 03:19:14;;;;;;;21.03;9.23;;;1.10;99.90;;;;;;4194095;28;20556;-68
2023/02/06 03:21:20;;;;;;;32.67;9.23;;;1.20;99.90;;;;;;4179451;28;20465;-69
2023/02/06 03:23:28;;;;;;;26.67;10.17;;;1.30;99.90;;;;;;4198264;28;21032;-68
2023/02/06 03:25:37;;;;;;;19.40;8.30;;;1.20;99.90;;;;;;4198096;28;20922;-68
2023/02/06 03:27:41;;;;;;;24.27;9.23;;;1.20;99.90;;;;;;4197901;28;20502;-70
2023/02/06 03:29:43;;;;;;;34.97;11.10;;;1.10;99.90;;;;;;4197299;28;20423;-69
2023/02/06 03:31:52;;;;;;;71.40;11.43;;;1.10;99.90;;;;;;4197775;28;20423;-69
2023/02/06 03:34:05;;;;;;;53.07;12.50;;;1.10;99.90;;;;;;4198023;28;20895;-69
2023/02/06 03:36:09;;;;;;;21.47;8.00;;;0.90;99.90;;;;;;4215918;28;20428;-69
2023/02/06 03:38:11;;;;;;;46.13;10.10;;;0.80;99.90;;;;;;4198098;28;20451;-69
2023/02/06 03:40:13;;;;;;;24.20;9.20;;;0.70;99.90;;;;;;4197369;28;21253;-69
2023/02/06 03:42:16;;;;;;;20.07;9.30;;;0.70;99.90;;;;;;4197449;28;20481;-68
2023/02/06 03:44:24;;;;;;;28.20;10.33;;;0.80;99.90;;;;;;4216521;28;20433;-69
2023/02/06 03:46:27;;;;;;;47.40;12.40;;;1.00;99.90;;;;;;4198433;28;20413;-69
2023/02/06 03:48:39;;;;;;;94.53;16.90;;;0.90;99.90;;;;;;4197100;28;20943;-69
2023/02/06 03:50:43;;;;;;;66.43;18.20;;;0.90;99.90;;;;;;4177135;28;20429;-68
2023/02/06 03:52:47;;;;;;;24.10;9.17;;;0.90;99.90;;;;;;4197501;28;20832;-69
2023/02/06 03:54:57;;;;;;;47.03;11.73;;;0.90;99.90;;;;;;4191429;28;20835;-68
2023/02/06 03:57:05;;;;;;;40.40;11.40;;;1.00;99.90;;;;;;4191437;28;20497;-68
2023/02/06 03:59:06;;;;;;;40.70;13.00;;;1.00;99.90;;;;;;4196808;28;20474;-68
2023/02/06 04:01:07;;;;;;;22.47;9.70;;;0.90;99.90;;;;;;4215585;28;21016;-68
2023/02/06 04:03:10;;;;;;;36.33;12.30;;;0.90;99.90;;;;;;4215631;28;20177;-68
2023/02/06 04:05:11;;;;;;;47.23;11.83;;;0.90;99.90;;;;;;4197472;28;20472;-68
2023/02/06 04:07:24;;;;;;;36.90;11.13;;;0.90;99.90;;;;;;4215327;28;20950;-67
2023/02/06 04:09:25;;;;;;;19.17;8.93;;;1.00;99.90;;;;;;4196655;28;20267;-67
2023/02/06 04:11:25;;;;;;;24.53;8.73;;;0.90;99.90;;;;;;4197138;28;20439;-68
2023/02/06 04:13:26;;;;;;;24.67;9.50;;;0.90;99.90;;;;;;4215196;28;20271;-68
2023/02/06 04:15:27;;;;;;;53.50;13.47;;;0.90;99.90;;;;;;4215338;28;20187;-68
2023/02/06 04:17:27;;;;;;;25.50;9.67;;;0.80;99.90;;;;;;4215180;28;20198;-68
2023/02/06 04:19:28;;;;;;;26.07;9.87;;;0.90;99.90;;;;;;4213301;28;20208;-68
2023/02/06 04:21:29;;;;;;;19.60;8.67;;;1.00;99.90;;;;;;4214747;28;20227;-68
2023/02/06 04:23:30;;;;;;;27.50;10.50;;;1.10;99.90;;;;;;4196903;28;20201;-68
2023/02/06 04:25:30;;;;;;;27.73;10.37;;;1.00;99.90;;;;;;4197095;28;20170;-68
2023/02/06 04:27:31;;;;;;;18.97;7.83;;;0.90;99.90;;;;;;4196991;28;20221;-68
2023/02/06 04:29:32;;;;;;;20.50;8.30;;;0.80;99.90;;;;;;4214323;28;20647;-68
2023/02/06 04:31:32;;;;;;;19.53;8.20;;;0.70;99.90;;;;;;4196564;28;20179;-68
2023/02/06 04:33:33;;;;;;;20.93;8.53;;;0.80;99.90;;;;;;4215035;28;20188;-68
2023/02/06 04:35:34;;;;;;;19.00;8.07;;;0.80;99.90;;;;;;4215049;28;20192;-68
2023/02/06 04:37:36;;;;;;;18.57;8.70;;;0.70;99.90;;;;;;4196644;28;20676;-72
2023/02/06 04:39:37;;;;;;;17.47;8.23;;;0.80;99.90;;;;;;4210384;28;20710;-68
2023/02/06 04:41:38;;;;;;;17.90;8.53;;;0.70;99.90;;;;;;4196871;28;20437;-68
2023/02/06 04:43:38;;;;;;;18.30;8.33;;;0.70;99.90;;;;;;4196622;28;20186;-68
2023/02/06 04:45:40;;;;;;;18.73;8.80;;;0.70;99.90;;;;;;4197084;28;20185;-69
2023/02/06 04:47:41;;;;;;;19.53;9.03;;;0.70;99.90;;;;;;4214973;28;20200;-68
2023/02/06 04:49:42;;;;;;;17.93;9.03;;;0.70;99.90;;;;;;4213935;28;20453;-68
2023/02/06 04:51:43;;;;;;;21.63;9.27;;;0.80;99.90;;;;;;4196568;28;20267;-68
2023/02/06 04:53:43;;;;;;;24.80;10.00;;;1.00;99.90;;;;;;4214490;28;20208;-69
2023/02/06 04:55:44;;;;;;;21.67;10.93;;;1.10;99.90;;;;;;4196726;28;20429;-69
2023/02/06 04:57:45;;;;;;;27.17;11.67;;;1.10;99.90;;;;;;4196652;28;20235;-68
2023/02/06 04:59:45;;;;;;;28.43;12.83;;;1.10;99.90;;;;;;4213691;28;20630;-69
2023/02/06 05:01:47;;;;;;;19.00;9.30;;;1.00;99.90;;;;;;4214728;28;20658;-69
2023/02/06 05:03:47;;;;;;;20.57;10.13;;;1.00;99.90;;;;;;4212679;28;20228;-69
2023/02/06 05:05:48;;;;;;;21.20;9.50;;;0.90;99.90;;;;;;4181392;28;20426;-68
2023/02/06 05:07:49;;;;;;;22.33;10.77;;;0.90;99.90;;;;;;4197804;28;20200;-68
2023/02/06 05:09:49;;;;;;;24.23;9.30;;;0.90;99.90;;;;;;4179092;28;20569;-68
2023/02/06 05:11:50;;;;;;;33.97;10.37;;;0.80;99.90;;;;;;4197869;28;20247;-68
2023/02/06 05:13:51;;;;;;;30.47;11.17;;;1.00;99.90;;;;;;4197618;28;20182;-68
2023/02/06 05:15:51;;;;;;;29.10;10.10;;;0.90;99.90;;;;;;4197418;28;20182;-68
2023/02/06 05:17:53;;;;;;;40.40;13.37;;;1.00;99.90;;;;;;4179735;28;20267;-68
2023/02/06 05:19:54;;;;;;;27.57;10.77;;;1.10;99.90;;;;;;4197140;28;20375;-68
2023/02/06 05:21:54;;;;;;;22.23;10.63;;;1.10;99.90;;;;;;4197146;28;20522;-68
2023/02/06 05:23:55;;;;;;;23.50;10.10;;;1.10;99.90;;;;;;4196678;28;20182;-68
2023/02/06 05:25:56;;;;;;;27.23;10.17;;;1.10;99.90;;;;;;4196765;28;20193;-68
2023/02/06 05:27:56;;;;;;;21.00;8.80;;;1.10;99.90;;;;;;4196908;28;20205;-68
2023/02/06 05:29:57;;;;;;;24.30;9.90;;;1.20;99.90;;;;;;4178186;28;20206;-68
2023/02/06 05:31:58;;;;;;;25.73;9.90;;;1.20;99.90;;;;;;4179076;28;20664;-69
2023/02/06 05:33:58;;;;;;;27.70;10.57;;;1.10;99.90;;;;;;4196663;28;20634;-68
2023/02/06 05:36:05;;;;;;;27.37;9.40;;;1.10;99.90;;;;;;4197003;28;20273;-69
2023/02/06 05:38:06;;;;;;;31.93;10.67;;;1.00;99.90;;;;;;4178993;28;20295;-69
2023/02/06 05:40:08;;;;;;;32.27;10.43;;;0.90;99.90;;;;;;4195877;28;20976;-69
2023/02/06 05:42:09;;;;;;;36.23;12.13;;;0.80;99.90;;;;;;4178795;28;20183;-69
2023/02/06 05:44:09;;;;;;;41.23;13.13;;;0.80;99.90;;;;;;4195980;28;20835;-69
2023/02/06 05:46:11;;;;;;;41.53;11.97;;;0.90;99.90;;;;;;4196639;28;20200;-68
2023/02/06 05:48:12;;;;;;;39.70;11.70;;;1.00;99.90;;;;;;4179247;28;20202;-68
2023/02/06 05:50:13;;;;;;;41.43;11.80;;;1.10;99.90;;;;;;4178182;28;20425;-68
2023/02/06 05:52:15;;;;;;;34.27;10.77;;;1.00;99.90;;;;;;4196531;28;20212;-68
2023/02/06 05:54:17;;;;;;;23.77;9.20;;;0.90;99.90;;;;;;4197272;28;20994;-69
2023/02/06 05:56:17;;;;;;;63.17;14.57;;;1.00;99.90;;;;;;4189892;28;20467;-68
2023/02/06 05:58:18;;;;;;;27.17;9.77;;;0.90;99.90;;;;;;4186449;28;20424;-68
2023/02/06 06:00:19;;;;;;;32.50;10.53;;;0.70;99.90;;;;;;4212711;28;20181;-69
2023/02/06 06:02:20;;;;;;;26.40;10.30;;;0.60;99.90;;;;;;4213116;28;20194;-68
2023/02/06 06:04:20;;;;;;;27.03;10.17;;;0.70;99.90;;;;;;4213019;28;20215;-69
2023/02/06 06:06:21;;;;;;;24.00;9.70;;;0.80;99.90;;;;;;4212964;28;20647;-68
2023/02/06 06:08:22;;;;;;;22.20;9.03;;;0.80;99.90;;;;;;4194421;28;20177;-68
2023/02/06 06:10:23;;;;;;;22.23;10.10;;;0.80;99.90;;;;;;4212584;28;20612;-69
2023/02/06 06:12:24;;;;;;;26.17;9.77;;;0.90;99.90;;;;;;4212970;28;20431;-68
2023/02/06 06:14:24;;;;;;;21.10;9.43;;;0.90;99.90;;;;;;4195171;28;20542;-69
2023/02/06 06:16:25;;;;;;;23.03;12.07;;;0.90;99.90;;;;;;4212873;28;20223;-68
2023/02/06 06:18:26;;;;;;;26.13;14.60;;;0.90;99.90;;;;;;4212009;28;20231;-69
2023/02/06 06:20:27;;;;;;;28.43;11.03;;;1.00;99.90;;;;;;4212852;28;20481;-68
2023/02/06 06:22:27;;;;;;;27.67;11.20;;;1.00;99.90;;;;;;4212826;28;20178;-69
2023/02/06 06:24:28;;;;;;;40.80;11.97;;;1.00;99.90;;;;;;4194703;28;20256;-69
2023/02/06 06:26:29;;;;;;;19.40;8.10;;;1.00;99.90;;;;;;4212712;28;20179;-68
2023/02/06 06:28:30;;;;;;;27.53;9.93;;;0.90;99.90;;;;;;4212151;28;20271;-68
2023/02/06 06:30:31;;;;;;;27.03;11.07;;;0.80;99.90;;;;;;4193676;28;20176;-68
2023/02/06 06:32:31;;;;;;;32.57;13.53;;;0.80;99.90;;;;;;4192204;28;20424;-68
2023/02/06 06:34:32;;;;;;;34.93;14.90;;;0.80;99.90;;;;;;4212648;28;20819;-69
2023/02/06 06:36:33;;;;;;;28.13;13.13;;;0.90;99.90;;;;;;4212520;28;20547;-68
2023/02/06 06:38:34;;;;;;;31.17;11.33;;;1.00;99.90;;;;;;4211592;28;20188;-69
2023/02/06 06:40:34;;;;;;;31.97;14.07;;;1.10;99.90;;;;;;4212615;28;20168;-68
2023/02/06 06:42:36;;;;;;;27.70;11.17;;;1.10;99.90;;;;;;4194663;28;20500;-69
2023/02/06 06:44:37;;;;;;;32.93;12.70;;;1.10;99.90;;;;;;4212567;28;20192;-68
2023/02/06 06:46:37;;;;;;;25.77;11.13;;;1.20;99.90;;;;;;4212496;28;20443;-69
2023/02/06 06:48:39;;;;;;;30.67;11.30;;;1.10;99.90;;;;;;4211859;28;20178;-68
2023/02/06 06:50:39;;;;;;;30.17;10.70;;;1.00;99.90;;;;;;4194764;28;20337;-69
2023/02/06 06:52:40;;;;;;;33.17;12.20;;;1.00;99.90;;;;;;4212607;28;20898;-69
2023/02/06 06:54:41;;;;;;;23.57;10.43;;;1.00;99.90;;;;;;4194808;28;20211;-68
2023/02/06 06:56:41;;;;;;;24.00;9.80;;;1.00;99.90;;;;;;4198017;28;20243;-69
2023/02/06 06:58:42;;;;;;;17.73;8.03;;;0.90;99.90;;;;;;4215135;28;20248;-69
2023/02/06 07:00:43;;;;;;;15.50;7.83;;;0.90;99.90;;;;;;4205555;28;20183;-69
2023/02/06 07:02:44;;;;;;;19.37;8.93;;;0.90;99.90;;;;;;4199059;28;20260;-68
2023/02/06 07:04:45;;;;;;;21.40;9.73;;;0.80;99.90;;;;;;4199150;28;20963;-69
2023/02/06 07:06:46;;;;;;;26.47;9.97;;;0.80;99.90;;;;;;4192757;28;20200;-64
2023/02/06 07:08:46;;;;;;;17.60;8.47;;;0.90;99.90;;;;;;4199420;28;20191;-69
2023/02/06 07:10:47;;;;;;;15.17;7.60;;;0.80;99.90;;;;;;4200615;28;20832;-68
2023/02/06 07:12:52;;;;;;;16.47;8.60;;;0.80;99.90;;;;;;4206862;28;20204;-68
2023/02/06 07:14:52;;;;;;;17.47;9.83;;;0.60;99.90;;;;;;4215775;28;20189;-68
2023/02/06 07:16:55;;;;;;;17.30;8.53;;;0.50;99.90;;;;;;4215676;28;20465;-68
2023/02/06 07:18:55;;;;;;;18.43;8.57;;;0.60;99.90;;;;;;4214507;28;20578;-68
2023/02/06 07:20:56;;;;;;;12.97;6.57;;;0.60;99.90;;;;;;4215634;28;20418;-68
2023/02/06 07:22:56;;;;;;;18.00;8.30;;;0.60;99.90;;;;;;4210067;28;20186;-68
2023/02/06 07:24:57;;;;;;;16.47;7.90;;;0.60;99.90;;;;;;4181030;28;20178;-68
2023/02/06 07:26:58;;;;;;;18.47;8.13;;;0.70;99.90;;;;;;4198928;28;20279;-69
2023/02/06 07:28:59;;;;;;;14.43;7.50;;;0.60;99.90;;;;;;4208897;28;20190;-67
2023/02/06 07:31:05;;;;;;;17.23;8.03;;;0.50;99.90;;;;;;4194253;28;20273;-69
2023/02/06 07:33:06;;;;;;;15.07;7.67;;;0.60;99.90;;;;;;4206589;28;20782;-70
2023/02/06 07:35:07;;;;;;;16.07;7.03;;;0.70;99.90;;;;;;4197362;28;20427;-69
2023/02/06 07:37:08;;;;;;;17.27;7.50;;;0.70;99.90;;;;;;4197096;28;20214;-69
2023/02/06 07:39:09;;;;;;;13.83;6.60;;;0.80;99.90;;;;;;4195999;28;20862;-66
2023/02/06 07:41:10;;;;;;;13.97;7.63;;;0.70;99.90;;;;;;4214119;28;20185;-66
2023/02/06 07:43:11;;;;;;;14.97;6.90;;;0.60;99.90;;;;;;4214817;28;20198;-67
2023/02/06 07:45:12;;;;;;;15.30;6.77;;;0.60;99.90;;;;;;4201366;28;20192;-68
2023/02/06 07:47:13;;;;;;;14.53;7.07;;;0.60;99.90;;;;;;4197972;28;20495;-68
2023/02/06 07:49:14;;;;;;;14.43;6.93;;;0.70;99.90;;;;;;4197406;28;20429;-67
2023/02/06 07:51:15;;;;;;;15.70;8.17;;;0.90;99.90;;;;;;4179834;28;20215;-67
2023/02/06 07:53:16;;;;;;;17.17;8.17;;;0.90;99.90;;;;;;4198393;28;20455;-69
2023/02/06 07:55:16;;;;;;;18.53;7.77;;;0.90;99.90;;;;;;4197245;28;20674;-68
2023/02/06 07:57:17;;;;;;;16.60;6.90;;;0.70;99.90;;;;;;4198184;28;20592;-68
2023/02/06 07:59:18;;;;;;;17.53;8.17;;;0.60;99.90;;;;;;4197000;28;20203;-68
2023/02/06 08:01:21;;;;;;;15.90;7.40;;;0.70;99.90;;;;;;4179852;28;20189;-68
2023/02/06 08:03:21;;;;;;;13.10;7.47;;;0.70;99.90;;;;;;4198103;28;20570;-68
2023/02/06 08:05:22;;;;;;;14.43;7.17;;;0.80;99.90;;;;;;4197650;28;20453;-69
2023/02/06 08:07:23;;;;;;;12.47;6.67;;;0.90;99.90;;;;;;4196706;28;20263;-67
2023/02/06 08:09:23;;;;;;;18.80;8.60;;;0.80;99.90;;;;;;4197419;28;20194;-68
2023/02/06 08:11:26;;;;;;;17.40;7.33;;;0.90;99.90;;;;;;4197821;28;20258;-68
2023/02/06 08:13:27;;;;;;;15.13;7.57;;;1.10;99.90;;;;;;4196907;28;20191;-67
2023/02/06 08:15:27;;;;;;;22.30;8.20;;;1.10;99.90;;;;;;4179767;28;20998;-67
2023/02/06 08:17:28;;;;;;;17.47;8.63;;;1.10;99.90;;;;;;4196438;28;20559;-68
2023/02/06 08:19:29;;;;;;;13.87;6.87;;;1.30;99.90;;;;;;4196812;28;20316;-68
2023/02/06 08:21:29;;;;;;;14.30;6.67;;;1.20;99.90;;;;;;4197491;28;20179;-67
2023/02/06 08:23:31;;;;;;;13.73;5.70;;;1.40;99.90;;;;;;4197821;28;20175;-68
2023/02/06 08:25:31;;;;;;;14.90;7.10;;;1.70;99.90;;;;;;4180046;28;20231;-67
2023/02/06 08:27:32;;;;;;;13.13;7.03;;;1.70;99.90;;;;;;4196960;28;21010;-67
2023/02/06 08:29:39;;;;;;;12.77;6.20;;;2.00;99.90;;;;;;4197061;28;20190;-68
2023/02/06 08:31:41;;;;;;;11.77;6.53;;;2.20;99.90;;;;;;4197405;28;20187;-66
2023/02/06 08:33:43;;;;;;;12.87;6.87;;;2.20;99.90;;;;;;4197488;28;20465;-66
2023/02/06 08:35:44;;;;;;;13.60;6.20;;;2.20;99.90;;;;;;4179928;28;20430;-66
2023/02/06 08:37:45;;;;;;;11.57;6.50;;;2.20;99.90;;;;;;4197084;28;20467;-66
2023/02/06 08:39:45;;;;;;;13.50;7.03;;;2.10;99.90;;;;;;4200005;28;20306;-66
2023/02/06 08:41:46;;;;;;;11.13;5.53;;;2.00;99.90;;;;;;4211573;28;20174;-66
2023/02/06 08:43:49;;;;;;;14.20;6.27;;;2.00;99.90;;;;;;4197476;28;20179;-66
2023/02/06 08:45:52;;;;;;;12.77;5.70;;;1.90;99.90;;;;;;4179681;28;20195;-66
2023/02/06 08:47:52;;;;;;;12.87;5.90;;;1.70;99.90;;;;;;4196608;28;20825;-66
2023/02/06 08:49:53;;;;;;;10.00;5.70;;;1.70;99.90;;;;;;4195178;28;20429;-67
2023/02/06 08:51:54;;;;;;;11.43;5.77;;;1.90;99.90;;;;;;4197436;28;20187;-69
2023/02/06 08:53:57;;;;;;;11.17;5.63;;;1.90;99.90;;;;;;4198481;28;20193;-69
2023/02/06 08:56:10;;;;;;;12.53;5.63;;;1.90;99.90;;;;;;4187477;28;20199;-68
2023/02/06 08:58:11;;;;;;;9.87;5.47;;;2.00;99.90;;;;;;4192322;28;20453;-67
2023/02/06 09:00:13;;;;;;;9.03;5.53;;;2.10;99.90;;;;;;4195911;28;20679;-68
2023/02/06 09:02:13;;;;;;;10.57;5.60;;;2.10;99.90;;;;;;4197887;28;20191;-69
2023/02/06 09:04:15;;;;;;;12.67;5.93;;;1.90;99.90;;;;;;4191215;28;20422;-68
2023/02/06 09:06:16;;;;;;;15.47;6.13;;;1.90;99.90;;;;;;4179248;28;20180;-69
2023/02/06 09:08:16;;;;;;;12.67;5.93;;;1.90;99.90;;;;;;4198074;28;20432;-68
2023/02/06 09:10:17;;;;;;;17.43;6.87;;;1.90;99.90;;;;;;4193451;28;20683;-68
2023/02/06 09:12:18;;;;;;;12.57;6.50;;;1.90;99.90;;;;;;4197154;28;20550;-69
2023/02/06 09:14:19;;;;;;;20.77;7.17;;;1.90;99.90;;;;;;4198490;28;20675;-69
2023/02/06 09:16:20;;;;;;;12.07;5.30;;;1.70;99.90;;;;;;4211502;28;20187;-67
2023/02/06 09:18:20;;;;;;;10.90;5.83;;;1.90;99.90;;;;;;4179515;28;21013;-68
2023/02/06 09:20:21;;;;;;;12.77;5.60;;;2.00;99.90;;;;;;4210848;28;20505;-69
2023/02/06 09:22:22;;;;;;;12.03;5.93;;;2.00;99.90;;;;;;4181195;28;20237;-68
2023/02/06 09:24:23;;;;;;;9.83;5.37;;;2.20;99.90;;;;;;4210956;28;20670;-69
2023/02/06 09:26:27;;;;;;;10.57;5.50;;;2.30;99.90;;;;;;4196462;28;20271;-68
2023/02/06 09:28:28;;;;;;;12.27;5.93;;;2.40;99.90;;;;;;4180924;28;20179;-69
2023/02/06 09:30:28;;;;;;;14.77;6.30;;;2.40;99.90;;;;;;4210351;28;20429;-69
2023/02/06 09:32:29;;;;;;;13.10;6.20;;;2.40;99.90;;;;;;4181767;28;20187;-70
2023/02/06 09:34:29;;;;;;;11.17;5.30;;;2.40;99.90;;;;;;4191968;28;20184;-70
2023/02/06 09:36:32;;;;;;;13.77;7.33;;;2.30;99.90;;;;;;4199945;28;20270;-70
2023/02/06 09:38:34;;;;;;;11.37;5.90;;;2.20;99.90;;;;;;4190664;28;20297;-69
2023/02/06 09:40:36;;;;;;;10.00;5.67;;;2.30;99.90;;;;;;4166133;28;21062;-68
2023/02/06 09:42:39;;;;;;;11.43;6.07;;;2.30;99.90;;;;;;4190930;28;20418;-69
2023/02/06 09:44:50;;;;;;;13.27;6.47;;;2.40;99.90;;;;;;4183503;28;20469;-69
2023/02/06 09:47:03;;;;;;;12.90;6.43;;;2.50;99.90;;;;;;4189216;28;20493;-69
2023/02/06 09:49:16;;;;;;;10.87;6.20;;;2.70;99.90;;;;;;4185998;28;20440;-68
2023/02/06 09:51:25;;;;;;;12.43;6.10;;;2.90;99.90;;;;;;4169200;28;20463;-69
2023/02/06 09:53:32;;;;;;;11.10;5.67;;;3.00;99.90;;;;;;4207731;28;20420;-69
2023/02/06 09:55:43;;;;;;;11.13;5.33;;;2.50;99.90;;;;;;4201094;28;21269;-69
2023/02/06 09:57:59;;;;;;;11.47;5.97;;;2.00;99.90;;;;;;4178924;28;20538;-69
2023/02/06 10:00:33;;;;;;;11.97;6.27;;;2.00;99.90;;;;;;4195491;28;20944;-69
2023/02/06 10:02:55;;;;;;;10.30;5.43;;;2.10;99.90;;;;;;4195436;28;20425;-68
2023/02/06 10:05:12;;;;;;;8.73;5.23;;;2.30;99.90;;;;;;4207064;28;20413;-70
2023/02/06 10:08:02;;;;;;;12.87;5.80;;;2.40;99.90;;;;;;4206421;28;20440;-69
2023/02/06 10:10:15;;;;;;;12.73;5.30;;;2.60;99.90;;;;;;4178450;28;20422;-68
2023/02/06 10:12:26;;;;;;;12.77;5.67;;;2.70;99.90;;;;;;4179945;28;21069;-69
2023/02/06 10:14:50;;;;;;;8.23;5.27;;;2.80;99.90;;;;;;4181333;28;20422;-71
2023/02/06 10:17:01;;;;;;;10.80;5.67;;;2.90;99.70;;;;;;4188779;28;20581;-69
2023/02/06 10:19:16;;;;;;;9.63;5.27;;;2.80;98.80;;;;;;4185161;28;21065;-68
2023/02/06 10:21:33;;;;;;;10.63;5.43;;;2.50;99.90;;;;;;4185091;28;20419;-69
2023/02/06 10:23:50;;;;;;;10.83;5.90;;;2.50;99.90;;;;;;4190338;28;20892;-68
2023/02/06 10:26:02;;;;;;;10.57;5.40;;;2.50;99.90;;;;;;4180381;28;20506;-69
2023/02/06 10:28:22;;;;;;;10.77;5.43;;;2.50;99.90;;;;;;4178362;28;20985;-70
2023/02/06 10:30:59;;;;;;;11.33;5.47;;;2.20;99.90;;;;;;4163644;28;20431;-70
2023/02/06 10:33:30;;;;;;;11.73;5.67;;;2.30;99.90;;;;;;4208024;28;20922;-68
2023/02/06 10:36:19;;;;;;;10.00;6.07;;;2.50;99.90;;;;;;4207585;28;20539;-65
2023/02/06 10:38:47;;;;;;;8.60;4.40;;;2.60;99.90;;;;;;4200793;28;20485;-66
2023/02/06 10:40:52;;;;;;;10.37;5.33;;;2.40;99.90;;;;;;4183974;28;20532;-68
2023/02/06 10:42:58;;;;;;;9.10;4.83;;;2.30;99.90;;;;;;4202392;28;20489;-68
2023/02/06 10:45:38;;;;;;;9.97;4.87;;;2.50;99.90;;;;;;4187403;28;20433;-69